createdAt,value
2019-02-12T00:01:55.806Z,1.17
2019-02-12T00:04:24.971Z,1.30
2019-02-12T00:06:54.072Z,0.90
2019-02-12T00:09:23.242Z,0.97
2019-02-12T00:11:52.379Z,0.67
2019-02-12T00:14:21.563Z,0.77
2019-02-12T00:16:51.046Z,0.83
2019-02-12T00:19:20.195Z,0.87
2019-02-12T00:21:49.409Z,1.10
2019-02-12T00:24:22.486Z,0.70
2019-02-12T00:26:51.629Z,0.80
2019-02-12T00:29:20.754Z,0.63
2019-02-12T00:31:50.751Z,0.63
2019-02-12T00:34:20.073Z,0.73
2019-02-12T00:36:49.546Z,1.40
2019-02-12T00:39:18.703Z,0.73
2019-02-12T00:41:47.884Z,0.93
2019-02-12T00:44:17.754Z,0.60
2019-02-12T00:46:49.195Z,0.97
2019-02-12T00:49:18.433Z,0.70
2019-02-12T00:51:47.631Z,0.80
2019-02-12T00:54:16.877Z,0.60
2019-02-12T00:56:46.041Z,1.00
2019-02-12T00:59:15.209Z,0.83
2019-02-12T01:01:44.946Z,1.00
2019-02-12T01:04:14.173Z,0.90
2019-02-12T01:06:43.333Z,1.00
2019-02-12T01:09:12.486Z,0.80
2019-02-12T01:11:41.671Z,0.90
2019-02-12T01:14:11.167Z,1.03
2019-02-12T01:16:40.340Z,1.47
2019-02-12T01:19:09.473Z,1.17
2019-02-12T01:21:38.680Z,0.70
2019-02-12T01:24:08.948Z,1.13
2019-02-12T01:26:38.078Z,1.10
2019-02-12T01:29:07.283Z,0.80
2019-02-12T01:31:36.357Z,0.80
2019-02-12T01:34:05.463Z,1.17
2019-02-12T01:36:34.647Z,0.87
2019-02-12T01:39:05.367Z,1.00
2019-02-12T01:41:37.253Z,0.80
2019-02-12T01:44:06.338Z,1.00
2019-02-12T01:46:35.521Z,0.70
2019-02-12T01:49:04.646Z,0.90
2019-02-12T01:51:35.144Z,0.50
2019-02-12T01:54:04.710Z,1.10
2019-02-12T01:56:33.897Z,0.60
2019-02-12T01:59:03.058Z,0.77
2019-02-12T02:01:32.172Z,0.50
2019-02-12T02:04:01.411Z,1.17
2019-02-12T02:06:30.683Z,0.77
2019-02-12T02:09:00.775Z,0.53
2019-02-12T02:11:29.884Z,0.80
2019-02-12T02:13:59.015Z,0.80
2019-02-12T02:16:28.213Z,0.83
2019-02-12T02:18:57.284Z,1.20
2019-02-12T02:21:26.370Z,0.80
2019-02-12T02:23:55.553Z,1.00
2019-02-12T02:26:24.710Z,0.60
2019-02-12T02:28:53.812Z,0.80
2019-02-12T02:31:36.746Z,0.80
2019-02-12T02:34:05.977Z,0.80
2019-02-12T02:36:35.178Z,0.70
2019-02-12T02:39:04.971Z,0.63
2019-02-12T02:41:34.139Z,0.70
2019-02-12T02:44:03.273Z,0.47
2019-02-12T02:46:32.334Z,0.93
2019-02-12T02:49:01.546Z,0.83
2019-02-12T02:51:30.639Z,0.60
2019-02-12T02:54:10.647Z,1.10
2019-02-12T02:56:39.737Z,0.40
2019-02-12T02:59:08.828Z,0.80
2019-02-12T03:01:37.979Z,1.20
2019-02-12T03:04:07.273Z,0.70
2019-02-12T03:06:36.479Z,0.70
2019-02-12T03:09:07.652Z,1.20
2019-02-12T03:11:36.782Z,1.03
2019-02-12T03:14:06.275Z,0.73
2019-02-12T03:16:35.336Z,0.83
2019-02-12T03:19:04.423Z,0.83
2019-02-12T03:21:33.643Z,0.70
2019-02-12T03:24:02.800Z,0.53
2019-02-12T03:26:32.109Z,0.80
2019-02-12T03:29:01.501Z,0.70
2019-02-12T03:31:30.589Z,0.70
2019-02-12T03:33:59.840Z,0.67
2019-02-12T03:36:28.938Z,0.80
2019-02-12T03:38:58.079Z,0.67
2019-02-12T03:41:27.186Z,0.50
2019-02-12T03:43:56.346Z,0.57
2019-02-12T03:46:25.506Z,0.57
2019-02-12T03:48:54.709Z,0.70
2019-02-12T03:51:24.949Z,0.60
2019-02-12T03:53:54.165Z,0.70
2019-02-12T03:56:23.319Z,0.60
2019-02-12T03:58:52.626Z,0.67
2019-02-12T04:01:23.717Z,1.10
2019-02-12T04:03:53.308Z,0.57
2019-02-12T04:06:22.375Z,0.47
2019-02-12T04:08:55.201Z,0.87
2019-02-12T04:11:24.491Z,0.77
2019-02-12T04:13:53.654Z,0.60
2019-02-12T04:16:22.765Z,0.23
2019-02-12T04:18:51.979Z,0.73
2019-02-12T04:21:21.186Z,0.53
2019-02-12T04:23:50.327Z,0.57
2019-02-12T04:26:19.471Z,0.60
2019-02-12T04:28:48.643Z,0.70
2019-02-12T04:31:17.787Z,0.53
2019-02-12T04:33:53.970Z,0.50
2019-02-12T04:36:23.213Z,0.70
2019-02-12T04:38:53.850Z,0.40
2019-02-12T04:41:23.025Z,0.47
2019-02-12T04:43:52.188Z,0.37
2019-02-12T04:46:21.401Z,0.10
2019-02-12T04:48:50.488Z,0.40
2019-02-12T04:51:19.671Z,0.70
2019-02-12T04:53:48.847Z,0.43
2019-02-12T04:56:17.946Z,0.77
2019-02-12T04:58:47.104Z,0.50
2019-02-12T05:01:16.164Z,0.70
2019-02-12T05:03:45.354Z,0.83
2019-02-12T05:06:14.451Z,0.90
2019-02-12T05:09:15.278Z,0.63
2019-02-12T05:11:47.579Z,0.83
2019-02-12T05:14:16.707Z,0.60
2019-02-12T05:16:45.919Z,0.73
2019-02-12T05:19:15.154Z,0.60
2019-02-12T05:21:44.246Z,0.80
2019-02-12T05:24:13.347Z,0.93
2019-02-12T05:26:45.355Z,0.43
2019-02-12T05:29:14.521Z,0.80
2019-02-12T05:31:46.932Z,0.67
2019-02-12T05:34:16.034Z,0.90
2019-02-12T05:36:45.274Z,0.43
2019-02-12T05:39:14.349Z,0.63
2019-02-12T05:41:43.586Z,0.90
2019-02-12T05:44:13.080Z,0.40
2019-02-12T05:46:42.238Z,0.50
2019-02-12T05:49:11.789Z,0.33
2019-02-12T05:51:40.974Z,0.70
2019-02-12T05:54:10.108Z,0.63
2019-02-12T05:56:39.297Z,1.10
2019-02-12T05:59:08.414Z,0.80
2019-02-12T06:01:37.582Z,0.60
2019-02-12T06:04:06.727Z,0.57
2019-02-12T06:06:35.833Z,0.67
2019-02-12T06:09:05.812Z,0.60
2019-02-12T06:11:34.902Z,0.80
2019-02-12T06:14:10.659Z,1.70
2019-02-12T06:16:39.888Z,0.87
2019-02-12T06:19:11.948Z,0.80
2019-02-12T06:21:40.791Z,0.93
2019-02-12T06:24:09.969Z,0.77
2019-02-12T06:26:39.161Z,0.87
2019-02-12T06:29:08.334Z,1.10
2019-02-12T06:31:37.600Z,0.87
2019-02-12T06:34:09.255Z,1.00
2019-02-12T06:36:41.051Z,0.83
2019-02-12T06:39:10.129Z,1.00
2019-02-12T06:41:39.209Z,0.90
2019-02-12T06:44:09.362Z,0.80
2019-02-12T06:46:38.519Z,1.00
2019-02-12T06:49:07.684Z,1.20
2019-02-12T06:51:36.765Z,1.07
2019-02-12T06:54:05.967Z,0.97
2019-02-12T06:56:35.155Z,0.60
2019-02-12T06:59:04.244Z,0.77
2019-02-12T07:01:33.504Z,0.90
2019-02-12T07:04:04.610Z,0.73
2019-02-12T07:07:07.231Z,1.30
2019-02-12T07:09:49.396Z,0.90
2019-02-12T07:12:24.295Z,0.83
2019-02-12T07:15:02.307Z,0.83
2019-02-12T07:17:40.697Z,0.97
2019-02-12T07:20:24.832Z,1.07
2019-02-12T07:23:05.995Z,1.20
2019-02-12T07:25:43.969Z,1.20
2019-02-12T07:28:40.713Z,1.47
2019-02-12T07:31:12.753Z,0.80
2019-02-12T07:34:02.896Z,0.80
2019-02-12T07:36:56.720Z,0.90
2019-02-12T07:39:45.274Z,0.70
2019-02-12T07:42:20.340Z,1.17
2019-02-12T07:44:55.409Z,1.07
2019-02-12T07:47:37.927Z,1.07
2019-02-12T07:50:22.071Z,1.40
2019-02-12T07:53:12.358Z,0.90
2019-02-12T07:55:56.788Z,1.10
2019-02-12T07:58:49.878Z,0.73
2019-02-12T08:01:38.254Z,1.37
2019-02-12T08:04:25.163Z,0.90
2019-02-12T08:07:05.030Z,0.90
2019-02-12T08:09:53.773Z,1.60
2019-02-12T08:12:47.921Z,1.20
2019-02-12T08:15:45.932Z,1.40
2019-02-12T08:18:49.139Z,0.90
2019-02-12T08:21:42.492Z,1.20
2019-02-12T08:24:23.851Z,1.33
2019-02-12T08:27:11.869Z,0.90
2019-02-12T08:30:03.022Z,0.90
2019-02-12T08:33:03.581Z,1.50
2019-02-12T08:35:41.497Z,0.93
2019-02-12T08:38:16.473Z,1.37
2019-02-12T08:41:21.124Z,1.30
2019-02-12T08:44:03.702Z,1.03
2019-02-12T08:46:53.263Z,0.90
2019-02-12T08:49:31.536Z,1.77
2019-02-12T08:52:08.483Z,0.87
2019-02-12T08:54:49.144Z,0.70
2019-02-12T08:57:29.767Z,1.07
2019-02-12T09:00:23.280Z,1.03
2019-02-12T09:03:25.185Z,1.20
2019-02-12T09:06:15.527Z,1.30
2019-02-12T09:08:53.208Z,1.03
2019-02-12T09:11:43.273Z,1.10
2019-02-12T09:14:29.990Z,0.87
2019-02-12T09:17:22.662Z,1.30
2019-02-12T09:20:03.343Z,1.10
2019-02-12T09:22:44.427Z,1.00
2019-02-12T09:25:40.153Z,0.83
2019-02-12T09:28:21.456Z,0.90
2019-02-12T09:31:11.443Z,0.90
2019-02-12T09:34:05.811Z,0.80
2019-02-12T09:36:52.997Z,0.90
2019-02-12T09:39:27.833Z,0.90
2019-02-12T09:42:18.022Z,0.90
2019-02-12T09:44:59.092Z,0.70
2019-02-12T09:47:52.263Z,1.00
2019-02-12T09:50:27.427Z,0.90
2019-02-12T09:53:05.839Z,1.00
2019-02-12T09:55:46.834Z,1.00
2019-02-12T09:58:31.871Z,0.80
2019-02-12T10:01:04.533Z,0.60
2019-02-12T10:03:48.842Z,0.63
2019-02-12T10:06:24.371Z,0.70
2019-02-12T10:08:59.393Z,0.60
2019-02-12T10:11:39.819Z,0.80
2019-02-12T10:14:28.242Z,0.70
2019-02-12T10:17:06.313Z,0.60
2019-02-12T10:19:41.666Z,0.60
2019-02-12T10:22:16.879Z,0.50
2019-02-12T10:24:50.059Z,0.60
2019-02-12T10:27:30.937Z,0.80
2019-02-12T10:30:28.522Z,0.73
2019-02-12T10:32:58.105Z,0.80
2019-02-12T10:35:28.972Z,0.90
2019-02-12T10:37:59.948Z,0.77
2019-02-12T10:40:28.841Z,0.97
2019-02-12T10:42:57.960Z,1.00
2019-02-12T10:45:37.119Z,0.93
2019-02-12T10:48:07.074Z,0.60
2019-02-12T10:50:36.347Z,1.10
2019-02-12T10:53:05.488Z,0.60
2019-02-12T10:55:35.110Z,0.97
2019-02-12T10:58:04.750Z,0.57
2019-02-12T11:00:34.280Z,0.80
2019-02-12T11:03:03.642Z,0.83
2019-02-12T11:05:32.798Z,0.87
2019-02-12T11:08:03.714Z,0.80
2019-02-12T11:10:32.875Z,1.30
2019-02-12T11:13:02.678Z,0.87
2019-02-12T11:15:34.551Z,0.77
2019-02-12T11:18:03.748Z,0.63
2019-02-12T11:20:34.003Z,0.70
2019-02-12T11:23:03.095Z,0.87
2019-02-12T11:25:32.289Z,0.90
2019-02-12T11:28:02.833Z,0.83
2019-02-12T11:30:33.987Z,1.10
2019-02-12T11:33:03.184Z,0.90
2019-02-12T11:35:32.685Z,0.80
2019-02-12T11:38:02.852Z,0.80
2019-02-12T11:40:32.985Z,0.63
2019-02-12T11:43:02.098Z,0.50
2019-02-12T11:45:31.463Z,0.60
2019-02-12T11:48:00.694Z,0.60
2019-02-12T11:50:32.778Z,0.80
2019-02-12T11:53:01.909Z,0.70
2019-02-12T11:55:31.050Z,0.80
2019-02-12T11:58:00.166Z,0.70
2019-02-12T12:00:30.932Z,0.53
2019-02-12T12:03:00.351Z,0.50
2019-02-12T12:05:29.546Z,0.83
2019-02-12T12:07:58.724Z,0.60
2019-02-12T12:10:27.924Z,0.57
2019-02-12T12:12:59.638Z,0.60
2019-02-12T12:15:31.759Z,0.70
2019-02-12T12:18:01.123Z,0.80
2019-02-12T12:20:30.366Z,0.70
2019-02-12T12:22:59.454Z,0.50
2019-02-12T12:25:28.518Z,0.80
2019-02-12T12:27:58.719Z,0.60
2019-02-12T12:30:27.885Z,0.80
2019-02-12T12:32:57.029Z,1.00
2019-02-12T12:35:26.279Z,0.90
2019-02-12T12:37:55.384Z,0.77
2019-02-12T12:40:24.856Z,0.90
2019-02-12T12:42:54.016Z,0.97
2019-02-12T12:45:23.314Z,1.13
2019-02-12T12:47:52.418Z,0.60
2019-02-12T12:50:21.626Z,0.90
2019-02-12T12:52:50.747Z,0.80
2019-02-12T12:55:21.403Z,0.70
2019-02-12T12:57:50.511Z,0.70
2019-02-12T13:00:24.085Z,1.20
2019-02-12T13:02:50.794Z,0.70
2019-02-12T13:05:24.859Z,0.73
2019-02-12T13:07:54.738Z,0.90
2019-02-12T13:10:23.955Z,1.03
2019-02-12T13:12:53.072Z,0.73
2019-02-12T13:15:22.254Z,0.83
2019-02-12T13:17:51.796Z,0.90
2019-02-12T13:20:21.397Z,0.77
2019-02-12T13:22:50.615Z,0.70
2019-02-12T13:25:19.808Z,1.10
2019-02-12T13:27:48.996Z,0.80
2019-02-12T13:30:21.417Z,0.93
2019-02-12T13:32:50.599Z,1.00
2019-02-12T13:35:19.770Z,1.10
2019-02-12T13:37:48.951Z,0.87
2019-02-12T13:40:18.255Z,1.00
2019-02-12T13:42:47.400Z,0.93
2019-02-12T13:45:21.645Z,1.07
2019-02-12T13:47:50.975Z,1.07
2019-02-12T13:50:20.705Z,1.03
2019-02-12T13:52:50.112Z,1.10
2019-02-12T13:55:19.315Z,1.00
2019-02-12T13:57:48.521Z,1.30
2019-02-12T14:00:18.756Z,0.80
2019-02-12T14:02:50.620Z,0.90
2019-02-12T14:05:25.788Z,1.03
2019-02-12T14:07:56.171Z,1.10
2019-02-12T14:10:25.793Z,1.07
2019-02-12T14:12:54.913Z,1.25
2019-02-12T14:15:24.132Z,1.40
2019-02-12T14:17:53.895Z,0.93
2019-02-12T14:20:24.484Z,0.93
2019-02-12T14:22:53.726Z,0.80
2019-02-12T14:25:25.779Z,1.13
2019-02-12T14:27:53.789Z,1.00
2019-02-12T14:30:23.672Z,1.13
2019-02-12T14:32:52.878Z,1.17
2019-02-12T14:35:25.822Z,1.13
2019-02-12T14:37:55.181Z,0.80
2019-02-12T14:40:24.352Z,1.27
2019-02-12T14:42:56.043Z,1.00
2019-02-12T14:45:25.239Z,1.13
2019-02-12T14:47:54.548Z,0.80
2019-02-12T14:50:26.083Z,1.03
2019-02-12T14:52:54.954Z,0.90
2019-02-12T14:55:33.355Z,1.00
2019-02-12T14:58:05.155Z,1.10
2019-02-12T15:00:36.102Z,1.07
2019-02-12T15:03:05.828Z,1.00
2019-02-12T15:05:34.962Z,1.07
2019-02-12T15:08:04.405Z,0.93
2019-02-12T15:10:33.595Z,1.27
2019-02-12T15:13:02.833Z,1.07
2019-02-12T15:15:31.962Z,1.43
2019-02-12T15:18:01.095Z,0.97
2019-02-12T15:20:32.117Z,1.20
2019-02-12T15:23:01.106Z,1.30
2019-02-12T15:25:30.888Z,1.10
2019-02-12T15:28:01.444Z,1.03
2019-02-12T15:30:30.673Z,1.10
2019-02-12T15:32:59.866Z,0.90
2019-02-12T15:35:29.650Z,1.30
2019-02-12T15:37:59.804Z,1.00
2019-02-12T15:40:30.725Z,1.17
2019-02-12T15:43:02.527Z,1.00
2019-02-12T15:45:31.697Z,1.20
2019-02-12T15:48:00.912Z,1.17
2019-02-12T15:50:30.115Z,1.00
2019-02-12T15:53:00.331Z,0.80
2019-02-12T15:55:31.903Z,1.30
2019-02-12T15:58:04.271Z,0.90
2019-02-12T16:00:31.826Z,1.03
2019-02-12T16:03:02.112Z,0.90
2019-02-12T16:05:32.820Z,1.17
2019-02-12T16:08:02.558Z,0.80
2019-02-12T16:10:32.290Z,1.17
2019-02-12T16:13:03.813Z,1.27
2019-02-12T16:15:35.668Z,0.77
2019-02-12T16:18:10.052Z,1.10
2019-02-12T16:20:39.352Z,1.10
2019-02-12T16:23:08.549Z,1.43
2019-02-12T16:25:37.986Z,1.27
2019-02-12T16:28:07.119Z,1.30
2019-02-12T16:30:39.269Z,0.97
2019-02-12T16:33:09.886Z,1.27
2019-02-12T16:35:39.133Z,1.00
2019-02-12T16:38:09.999Z,1.00
2019-02-12T16:40:39.330Z,1.20
2019-02-12T16:43:10.047Z,1.00
2019-02-12T16:45:58.750Z,1.10
2019-02-12T16:48:28.369Z,1.17
2019-02-12T16:50:57.552Z,1.20
2019-02-12T16:53:27.807Z,0.90
2019-02-12T16:55:57.537Z,1.20
2019-02-12T16:58:29.159Z,1.37
2019-02-12T17:00:58.315Z,1.20
2019-02-12T17:03:29.171Z,0.90
2019-02-12T17:05:58.344Z,1.10
2019-02-12T17:08:29.784Z,1.50
2019-02-12T17:10:59.611Z,1.20
2019-02-12T17:13:28.706Z,1.23
2019-02-12T17:15:57.897Z,1.30
2019-02-12T17:18:27.015Z,1.93
2019-02-12T17:20:57.551Z,1.67
2019-02-12T17:23:26.901Z,2.43
2019-02-12T17:25:57.341Z,2.20
2019-02-12T17:28:29.259Z,1.80
2019-02-12T17:30:58.340Z,2.20
2019-02-12T17:33:27.485Z,2.43
2019-02-12T17:36:01.489Z,2.00
2019-02-12T17:38:30.698Z,2.13
2019-02-12T17:41:03.546Z,2.50
2019-02-12T17:43:34.079Z,1.93
2019-02-12T17:46:03.407Z,1.73
2019-02-12T17:48:32.814Z,1.70
2019-02-12T17:51:02.106Z,1.80
2019-02-12T17:53:31.366Z,1.60
2019-02-12T17:56:00.772Z,1.60
2019-02-12T17:58:33.022Z,1.67
2019-02-12T18:01:03.856Z,1.40
2019-02-12T18:03:33.785Z,1.20
2019-02-12T18:06:06.743Z,1.17
2019-02-12T18:08:35.928Z,1.03
2019-02-12T18:11:15.899Z,1.50
2019-02-12T18:13:49.205Z,1.50
2019-02-12T18:16:19.005Z,1.60
2019-02-12T18:18:48.206Z,1.50
2019-02-12T18:21:18.934Z,1.53
2019-02-12T18:23:48.142Z,1.70
2019-02-12T18:26:17.567Z,1.57
2019-02-12T18:28:46.664Z,1.77
2019-02-12T18:31:15.755Z,1.30
2019-02-12T18:33:55.072Z,1.83
2019-02-12T18:36:23.762Z,1.70
2019-02-12T18:38:53.151Z,1.40
2019-02-12T18:41:22.327Z,1.17
2019-02-12T18:43:51.526Z,1.60
2019-02-12T18:46:21.725Z,1.77
2019-02-12T18:48:53.990Z,2.17
2019-02-12T18:51:24.237Z,1.57
2019-02-12T18:53:53.479Z,1.70
2019-02-12T18:56:22.834Z,1.60
2019-02-12T18:58:53.601Z,1.90
2019-02-12T19:01:22.763Z,1.87
2019-02-12T19:03:52.891Z,1.53
2019-02-12T19:06:22.707Z,2.30
2019-02-12T19:08:52.059Z,1.60
2019-02-12T19:11:22.319Z,1.63
2019-02-12T19:13:51.727Z,1.67
2019-02-12T19:16:21.237Z,1.83
2019-02-12T19:18:50.431Z,1.73
2019-02-12T19:21:19.558Z,1.80
2019-02-12T19:23:53.321Z,1.90
2019-02-12T19:26:23.043Z,2.07
2019-02-12T19:28:52.158Z,1.97
2019-02-12T19:31:21.517Z,1.63
2019-02-12T19:33:52.696Z,2.33
2019-02-12T19:36:22.013Z,2.20
2019-02-12T19:38:52.892Z,1.53
2019-02-12T19:41:22.737Z,2.00
2019-02-12T19:43:52.926Z,1.73
2019-02-12T19:46:23.898Z,2.00
2019-02-12T19:48:54.886Z,1.77
2019-02-12T19:51:27.061Z,1.90
2019-02-12T19:53:56.139Z,2.67
2019-02-12T19:56:25.341Z,2.63
2019-02-12T19:58:54.522Z,2.30
2019-02-12T20:01:23.858Z,2.07
2019-02-12T20:03:53.994Z,2.33
2019-02-12T20:06:23.240Z,2.33
2019-02-12T20:08:53.830Z,2.00
2019-02-12T20:11:24.019Z,2.27
2019-02-12T20:13:53.166Z,1.73
2019-02-12T20:16:22.370Z,1.87
2019-02-12T20:18:53.271Z,2.00
2019-02-12T20:21:22.572Z,2.00
2019-02-12T20:23:53.022Z,1.90
2019-02-12T20:26:22.533Z,2.27
2019-02-12T20:28:52.443Z,2.40
2019-02-12T20:31:21.903Z,1.90
2019-02-12T20:33:56.964Z,1.87
2019-02-12T20:36:22.275Z,2.10
2019-02-12T20:38:51.437Z,2.37
2019-02-12T20:41:20.541Z,2.57
2019-02-12T20:43:50.102Z,2.57
2019-02-12T20:46:19.330Z,1.63
2019-02-12T20:48:50.065Z,1.60
2019-02-12T20:51:19.542Z,1.73
2019-02-12T20:53:58.756Z,1.70
2019-02-12T20:56:28.026Z,1.67
2019-02-12T20:59:00.818Z,1.80
2019-02-12T21:01:31.409Z,1.60
2019-02-12T21:04:04.148Z,1.83
2019-02-12T21:06:33.515Z,1.93
2019-02-12T21:09:24.024Z,2.00
2019-02-12T21:11:53.040Z,1.63
2019-02-12T21:14:22.146Z,1.70
2019-02-12T21:17:13.249Z,1.40
2019-02-12T21:22:40.950Z,1.80
2019-02-12T21:25:22.872Z,2.40
2019-02-12T21:27:53.049Z,3.17
2019-02-12T21:30:30.292Z,2.40
2019-02-12T21:33:02.115Z,2.27
2019-02-12T21:35:32.824Z,2.30
2019-02-12T21:38:09.458Z,2.43
2019-02-12T21:40:47.303Z,2.47
2019-02-12T21:43:24.047Z,2.90
2019-02-12T21:51:51.544Z,2.90
2019-02-12T21:57:20.485Z,3.00
2019-02-12T22:00:04.145Z,2.70
2019-02-12T22:02:39.625Z,2.90
2019-02-12T22:05:11.130Z,2.50
2019-02-12T22:10:46.023Z,2.33
2019-02-12T22:13:15.639Z,2.90
2019-02-12T22:16:02.797Z,2.07
2019-02-12T22:18:36.427Z,2.97
2019-02-12T22:21:05.661Z,2.07
2019-02-12T22:23:37.793Z,2.30
2019-02-12T22:26:08.496Z,2.37
2019-02-12T22:28:37.864Z,1.80
2019-02-12T22:31:08.211Z,2.00
2019-02-12T22:33:37.429Z,2.00
2019-02-12T22:38:58.232Z,1.87
2019-02-12T22:41:27.866Z,1.83
2019-02-12T22:44:02.112Z,2.33
2019-02-12T22:46:32.510Z,2.23
2019-02-12T22:49:02.120Z,2.13
2019-02-12T22:51:31.472Z,2.37
2019-02-12T22:54:01.812Z,2.03
2019-02-12T22:56:34.024Z,2.00
2019-02-12T22:59:17.294Z,2.10
2019-02-12T23:01:49.266Z,2.07
2019-02-12T23:04:18.829Z,1.90
2019-02-12T23:09:23.475Z,2.30
2019-02-12T23:11:54.114Z,2.27
2019-02-12T23:14:25.862Z,2.10
2019-02-12T23:16:57.039Z,2.27
2019-02-12T23:19:26.256Z,2.43
2019-02-12T23:21:55.565Z,2.43
2019-02-12T23:24:24.741Z,2.50
2019-02-12T23:26:54.181Z,2.63
2019-02-12T23:29:23.503Z,2.43
2019-02-12T23:31:52.834Z,2.60
2019-02-12T23:34:23.996Z,2.90
2019-02-12T23:36:52.958Z,2.33
2019-02-12T23:39:23.583Z,2.90
2019-02-12T23:41:54.080Z,2.80
2019-02-12T23:44:23.298Z,3.10
2019-02-12T23:46:52.531Z,2.63
2019-02-12T23:49:21.778Z,3.07
2019-02-12T23:51:51.177Z,2.90
2019-02-12T23:54:23.040Z,3.03
2019-02-12T23:56:52.434Z,3.10
2019-02-12T23:59:21.660Z,2.83
